Blackville, South Carolina
Current Conditions -  °F | °C
As of 10:55 PM on Sunday 23 Nov 2014 (Local Time) from KBNL Reporting Station
Broken Clouds Broken Clouds  
Wind Chill: 66°   Ceiling: 11000
Heat Index: 66°   Visibility: NA
Dew Point: 64°   Wind: 7mph
Humidity: 94%   Direction: 200°SSW
Pressure: 29.81"   Gusts: NA
Location:  33.36°N, 81.27°W
Report Text: KBNL 240355Z AUTO 20006KT BKN110 19/18 A2981 RMK AO2 LTG DSNT SE AND S
Loading
Personal Weather Stations






























Interactive Weather Map New forecast layout! Learn more

10-Day Weather Forecast

Advertisements
Track Severe Weather on mobile